createdAt,value
2016-07-28T00:00:44.444Z,-80
2016-07-28T00:01:44.623Z,-80
2016-07-28T00:02:44.450Z,-80
2016-07-28T00:03:44.648Z,-80
2016-07-28T00:04:44.539Z,-80
2016-07-28T00:05:44.561Z,-80
2016-07-28T00:06:44.747Z,-80
2016-07-28T00:07:44.718Z,-80
2016-07-28T00:08:44.511Z,-81
2016-07-28T00:09:44.644Z,-80
2016-07-28T00:10:44.668Z,-81
2016-07-28T00:11:44.756Z,-80
2016-07-28T00:12:44.586Z,-80
2016-07-28T00:13:44.661Z,-80
2016-07-28T00:14:44.558Z,-81
2016-07-28T00:15:44.591Z,-80
2016-07-28T00:16:44.616Z,-80
2016-07-28T00:17:44.621Z,-80
2016-07-28T00:18:44.742Z,-81
2016-07-28T00:19:44.633Z,-80
2016-07-28T00:20:44.571Z,-81
2016-07-28T00:21:44.619Z,-80
2016-07-28T00:22:44.616Z,-80
2016-07-28T00:23:44.714Z,-80
2016-07-28T00:24:44.788Z,-80
2016-07-28T00:25:44.613Z,-80
2016-07-28T00:26:44.621Z,-81
2016-07-28T00:27:44.702Z,-80
2016-07-28T00:28:44.793Z,-81
2016-07-28T00:29:44.747Z,-80
2016-07-28T00:30:44.620Z,-80
2016-07-28T00:31:44.807Z,-80
2016-07-28T00:32:44.709Z,-80
2016-07-28T00:33:44.718Z,-80
2016-07-28T00:34:44.810Z,-79
2016-07-28T00:35:44.600Z,-80
2016-07-28T00:36:44.842Z,-80
2016-07-28T00:37:44.668Z,-80
2016-07-28T00:38:44.662Z,-79
2016-07-28T00:39:44.734Z,-80
2016-07-28T00:40:44.806Z,-80
2016-07-28T00:41:44.750Z,-80
2016-07-28T00:42:44.654Z,-80
2016-07-28T00:43:44.813Z,-80
2016-07-28T00:44:44.667Z,-80
2016-07-28T00:45:44.777Z,-80
2016-07-28T00:46:44.853Z,-80
2016-07-28T00:47:44.760Z,-80
2016-07-28T00:48:44.780Z,-79
2016-07-28T00:49:44.770Z,-80
2016-07-28T00:50:44.807Z,-80
2016-07-28T00:51:44.712Z,-80
2016-07-28T00:52:44.773Z,-80
2016-07-28T00:53:44.694Z,-80
2016-07-28T00:54:44.685Z,-80
2016-07-28T00:55:44.888Z,-79
2016-07-28T00:56:44.803Z,-79
2016-07-28T00:57:44.706Z,-80
2016-07-28T00:58:44.717Z,-80
2016-07-28T00:59:44.847Z,-80
2016-07-28T01:00:44.816Z,-80
2016-07-28T01:01:44.709Z,-79
2016-07-28T01:02:44.877Z,-79
2016-07-28T01:03:44.733Z,-80
2016-07-28T01:04:44.834Z,-80
2016-07-28T01:05:44.754Z,-80
2016-07-28T01:06:44.846Z,-79
2016-07-28T01:07:44.762Z,-80
2016-07-28T01:08:44.776Z,-79
2016-07-28T01:09:44.688Z,-80
2016-07-28T01:10:44.946Z,-80
2016-07-28T01:11:44.823Z,-79
2016-07-28T01:12:44.773Z,-79
2016-07-28T01:13:44.839Z,-80
2016-07-28T01:14:44.853Z,-80
2016-07-28T01:15:44.843Z,-79
2016-07-28T01:16:44.863Z,-79
2016-07-28T01:17:44.866Z,-79
2016-07-28T01:18:44.786Z,-80
2016-07-28T01:19:44.992Z,-80
2016-07-28T01:20:44.846Z,-80
2016-07-28T01:21:44.782Z,-79
2016-07-28T01:22:44.860Z,-80
2016-07-28T01:23:44.811Z,-79
2016-07-28T01:24:44.918Z,-79
2016-07-28T01:25:44.886Z,-80
2016-07-28T01:26:44.910Z,-80
2016-07-28T01:27:44.701Z,-80
2016-07-28T01:28:44.821Z,-80
2016-07-28T01:29:44.773Z,-79
2016-07-28T01:30:44.999Z,-80
2016-07-28T01:31:44.827Z,-80
2016-07-28T01:32:44.824Z,-80
2016-07-28T01:33:44.987Z,-79
2016-07-28T01:34:44.912Z,-80
2016-07-28T01:35:44.795Z,-79
2016-07-28T01:36:44.749Z,-80
2016-07-28T01:37:44.963Z,-79
2016-07-28T01:38:44.856Z,-80
2016-07-28T01:39:44.910Z,-79
2016-07-28T01:40:44.830Z,-79
2016-07-28T01:41:44.856Z,-80
2016-07-28T01:42:44.924Z,-79
2016-07-28T01:43:44.859Z,-80
2016-07-28T01:44:44.937Z,-80
2016-07-28T01:45:44.845Z,-80
2016-07-28T01:46:44.857Z,-79
2016-07-28T01:47:44.969Z,-79
2016-07-28T01:48:44.865Z,-80
2016-07-28T01:49:44.848Z,-79
2016-07-28T01:50:44.901Z,-79
2016-07-28T01:51:44.891Z,-80
2016-07-28T01:52:45.032Z,-79
2016-07-28T01:53:44.960Z,-80
2016-07-28T01:54:44.887Z,-79
2016-07-28T01:55:44.975Z,-80
2016-07-28T01:56:44.900Z,-79
2016-07-28T01:57:44.870Z,-79
2016-07-28T01:58:44.892Z,-79
2016-07-28T01:59:44.973Z,-80
2016-07-28T02:00:45.068Z,-79
2016-07-28T02:01:45.027Z,-79
2016-07-28T02:02:44.825Z,-79
2016-07-28T02:03:45.053Z,-79
2016-07-28T02:04:45.049Z,-79
2016-07-28T02:05:45.003Z,-80
2016-07-28T02:06:44.916Z,-79
2016-07-28T02:07:44.912Z,-80
2016-07-28T02:08:45.031Z,-80
2016-07-28T02:09:45.009Z,-79
2016-07-28T02:10:44.882Z,-80
2016-07-28T02:11:45.065Z,-79
2016-07-28T02:12:45.015Z,-80
2016-07-28T02:13:45.048Z,-80
2016-07-28T02:14:44.949Z,-79
2016-07-28T02:15:44.874Z,-80
2016-07-28T02:16:45.018Z,-79
2016-07-28T02:17:44.939Z,-80
2016-07-28T02:18:45.119Z,-80
2016-07-28T02:19:44.994Z,-80
2016-07-28T02:20:44.992Z,-80
2016-07-28T02:21:45.102Z,-80
2016-07-28T02:22:45.065Z,-79
2016-07-28T02:23:45.126Z,-79
2016-07-28T02:24:45.026Z,-80
2016-07-28T02:25:45.059Z,-80
2016-07-28T02:26:45.161Z,-80
2016-07-28T02:27:45.121Z,-80
2016-07-28T02:28:44.987Z,-80
2016-07-28T02:29:44.908Z,-80
2016-07-28T02:30:45.071Z,-79
2016-07-28T02:31:44.983Z,-80
2016-07-28T02:32:45.094Z,-80
2016-07-28T02:33:44.954Z,-79
2016-07-28T02:34:45.009Z,-79
2016-07-28T02:35:44.990Z,-79
2016-07-28T02:36:44.940Z,-80
2016-07-28T02:37:45.099Z,-80
2016-07-28T02:38:45.078Z,-79
2016-07-28T02:39:45.027Z,-79
2016-07-28T02:40:45.072Z,-80
2016-07-28T02:42:44.956Z,-79
2016-07-28T02:43:45.138Z,-80
2016-07-28T02:44:45.053Z,-80
2016-07-28T02:45:45.028Z,-80
2016-07-28T02:46:52.885Z,-80
2016-07-28T02:47:45.082Z,-80
2016-07-28T02:48:45.101Z,-80
2016-07-28T02:49:44.931Z,-79
2016-07-28T02:50:45.104Z,-80
2016-07-28T02:51:45.117Z,-80
2016-07-28T02:52:45.176Z,-80
2016-07-28T02:53:45.128Z,-80
2016-07-28T02:54:45.110Z,-80
2016-07-28T02:55:45.088Z,-80
2016-07-28T02:56:45.175Z,-80
2016-07-28T02:57:45.070Z,-79
2016-07-28T02:58:45.075Z,-79
2016-07-28T02:59:45.088Z,-80
2016-07-28T03:00:44.989Z,-79
2016-07-28T03:01:45.147Z,-80
2016-07-28T03:02:45.084Z,-79
2016-07-28T03:03:45.014Z,-80
2016-07-28T03:05:49.848Z,-79
2016-07-28T03:05:56.654Z,-80
2016-07-28T03:06:56.799Z,-80
2016-07-28T03:07:56.702Z,-80
2016-07-28T03:08:56.758Z,-80
2016-07-28T03:09:56.810Z,-79
2016-07-28T03:10:56.819Z,-80
2016-07-28T03:12:56.745Z,-79
2016-07-28T03:13:56.760Z,-79
2016-07-28T03:14:56.754Z,-80
2016-07-28T03:15:56.768Z,-79
2016-07-28T03:16:56.842Z,-79
2016-07-28T03:17:56.687Z,-80
2016-07-28T03:18:56.764Z,-79
2016-07-28T03:19:56.801Z,-80
2016-07-28T03:20:56.705Z,-80
2016-07-28T03:21:56.784Z,-80
2016-07-28T03:22:56.836Z,-80
2016-07-28T03:23:56.790Z,-80
2016-07-28T03:24:56.845Z,-79
2016-07-28T03:25:56.873Z,-79
2016-07-28T03:27:56.810Z,-80
2016-07-28T03:28:56.877Z,-80
2016-07-28T03:29:56.779Z,-80
2016-07-28T03:30:56.947Z,-80
2016-07-28T03:31:56.899Z,-79
2016-07-28T03:32:56.736Z,-80
2016-07-28T03:33:56.751Z,-79
2016-07-28T03:34:56.840Z,-80
2016-07-28T03:35:56.737Z,-79
2016-07-28T03:36:56.751Z,-80
2016-07-28T03:37:56.830Z,-79
2016-07-28T03:38:56.975Z,-80
2016-07-28T03:39:56.841Z,-80
2016-07-28T03:40:56.914Z,-79
2016-07-28T03:41:56.987Z,-79
2016-07-28T03:42:56.913Z,-80
2016-07-28T03:43:56.935Z,-80
2016-07-28T03:44:56.912Z,-79
2016-07-28T03:45:56.846Z,-80
2016-07-28T03:46:56.850Z,-79
2016-07-28T03:47:56.946Z,-80
2016-07-28T03:48:56.914Z,-79
2016-07-28T03:49:56.956Z,-79
2016-07-28T03:50:56.926Z,-80
2016-07-28T03:51:56.786Z,-80
2016-07-28T03:52:56.907Z,-80
2016-07-28T03:53:56.882Z,-79
2016-07-28T03:54:56.949Z,-80
2016-07-28T03:55:56.859Z,-79
2016-07-28T03:56:56.956Z,-80
2016-07-28T03:57:57.077Z,-80
2016-07-28T03:58:56.808Z,-79
2016-07-28T03:59:56.805Z,-79
2016-07-28T04:00:56.890Z,-80
2016-07-28T04:01:56.976Z,-80
2016-07-28T04:02:57.058Z,-80
2016-07-28T04:03:56.911Z,-80
2016-07-28T04:04:56.814Z,-80
2016-07-28T04:05:56.928Z,-80
2016-07-28T04:06:56.991Z,-80
2016-07-28T04:07:56.832Z,-80
2016-07-28T04:08:56.974Z,-80
2016-07-28T04:09:56.974Z,-80
2016-07-28T04:10:57.059Z,-80
2016-07-28T04:11:56.833Z,-80
2016-07-28T04:12:57.013Z,-80
2016-07-28T04:13:57.099Z,-80
2016-07-28T04:14:56.938Z,-79
2016-07-28T04:15:56.934Z,-79
2016-07-28T04:16:57.003Z,-80
2016-07-28T04:17:57.010Z,-80
2016-07-28T04:18:57.096Z,-80
2016-07-28T04:19:57.173Z,-79
2016-07-28T04:20:57.026Z,-80
2016-07-28T04:21:57.031Z,-79
2016-07-28T04:22:56.948Z,-80
2016-07-28T04:23:57.021Z,-80
2016-07-28T04:24:57.067Z,-80
2016-07-28T04:25:57.033Z,-79
2016-07-28T04:26:57.037Z,-79
2016-07-28T04:27:56.894Z,-80
2016-07-28T04:28:57.137Z,-79
2016-07-28T04:29:57.054Z,-79
2016-07-28T04:30:57.095Z,-80
2016-07-28T04:31:57.044Z,-79
2016-07-28T04:32:56.993Z,-80
2016-07-28T04:33:56.979Z,-79
2016-07-28T04:34:57.102Z,-79
2016-07-28T04:35:57.079Z,-80
2016-07-28T04:36:57.087Z,-80
2016-07-28T04:37:57.083Z,-80
2016-07-28T04:38:57.101Z,-80
2016-07-28T04:39:56.990Z,-80
2016-07-28T04:40:56.937Z,-80
2016-07-28T04:41:57.068Z,-80
2016-07-28T04:42:57.133Z,-79
2016-07-28T04:43:57.193Z,-80
2016-07-28T04:44:57.035Z,-80
2016-07-28T04:45:57.187Z,-80
2016-07-28T04:46:57.022Z,-80
2016-07-28T04:47:57.129Z,-80
2016-07-28T04:48:57.029Z,-79
2016-07-28T04:49:57.123Z,-80
2016-07-28T04:50:57.144Z,-86
2016-07-28T04:51:57.131Z,-85
2016-07-28T04:52:57.044Z,-84
2016-07-28T04:53:57.182Z,-84
2016-07-28T04:54:57.194Z,-84
2016-07-28T04:55:56.985Z,-84
2016-07-28T04:56:57.141Z,-84
2016-07-28T04:57:57.147Z,-85
2016-07-28T04:58:57.134Z,-84
2016-07-28T04:59:57.894Z,-85
2016-07-28T05:00:56.998Z,-84
2016-07-28T05:01:57.235Z,-84
2016-07-28T05:02:57.194Z,-84
2016-07-28T05:03:57.109Z,-84
2016-07-28T05:04:57.081Z,-85
2016-07-28T05:05:57.151Z,-84
2016-07-28T05:06:57.174Z,-84
2016-07-28T05:07:57.119Z,-84
2016-07-28T05:08:57.108Z,-84
2016-07-28T05:09:57.797Z,-85
2016-07-28T05:10:57.644Z,-84
2016-07-28T05:11:57.106Z,-84
2016-07-28T05:12:57.120Z,-84
2016-07-28T05:13:57.208Z,-84
2016-07-28T05:14:57.195Z,-85
2016-07-28T05:15:57.075Z,-85
2016-07-28T05:16:57.143Z,-85
2016-07-28T05:17:57.186Z,-85
2016-07-28T05:18:57.284Z,-85
2016-07-28T05:19:57.438Z,-84
2016-07-28T05:20:57.300Z,-85
2016-07-28T05:21:57.304Z,-84
2016-07-28T05:22:57.228Z,-85
2016-07-28T05:23:57.136Z,-85
2016-07-28T05:24:57.232Z,-84
2016-07-28T05:25:57.228Z,-84
2016-07-28T05:26:57.229Z,-85
2016-07-28T05:27:57.305Z,-84
2016-07-28T05:28:57.179Z,-84
2016-07-28T05:29:57.256Z,-85
2016-07-28T05:30:57.279Z,-85
2016-07-28T05:31:57.281Z,-85
2016-07-28T05:32:57.177Z,-84
2016-07-28T05:33:57.254Z,-85
2016-07-28T05:34:57.106Z,-85
2016-07-28T05:35:57.286Z,-84
2016-07-28T05:36:57.150Z,-84
2016-07-28T05:37:57.205Z,-85
2016-07-28T05:38:57.277Z,-85
2016-07-28T05:39:57.217Z,-84
2016-07-28T05:40:57.154Z,-85
2016-07-28T05:41:57.279Z,-84
2016-07-28T05:42:57.375Z,-85
2016-07-28T05:43:57.199Z,-84
2016-07-28T05:44:57.374Z,-84
2016-07-28T05:45:57.295Z,-84
2016-07-28T05:46:57.170Z,-85
2016-07-28T05:47:57.273Z,-84
2016-07-28T05:48:57.217Z,-84
2016-07-28T05:49:57.364Z,-84
2016-07-28T05:51:57.313Z,-85
2016-07-28T05:52:57.245Z,-85
2016-07-28T05:53:57.332Z,-84
2016-07-28T05:54:57.471Z,-84
2016-07-28T05:55:57.245Z,-85
2016-07-28T05:56:57.399Z,-84
2016-07-28T05:57:57.429Z,-84
2016-07-28T05:58:57.353Z,-85
2016-07-28T05:59:57.233Z,-85
2016-07-28T06:00:57.318Z,-84
2016-07-28T06:01:57.308Z,-84
2016-07-28T06:02:57.197Z,-84
2016-07-28T06:03:57.271Z,-84
2016-07-28T06:04:57.258Z,-84
2016-07-28T06:05:57.334Z,-84
2016-07-28T06:06:57.352Z,-84
2016-07-28T06:07:58.648Z,-84
2016-07-28T06:08:57.201Z,-85
2016-07-28T06:09:57.374Z,-85
2016-07-28T06:10:57.354Z,-84
2016-07-28T06:11:57.442Z,-85
2016-07-28T06:12:57.381Z,-85
2016-07-28T06:13:57.446Z,-84
2016-07-28T06:14:57.363Z,-84
2016-07-28T06:15:57.307Z,-84
2016-07-28T06:16:57.478Z,-84
2016-07-28T06:17:57.392Z,-85
2016-07-28T06:18:57.855Z,-84
2016-07-28T06:19:57.268Z,-85
2016-07-28T06:20:57.477Z,-85
2016-07-28T06:21:57.391Z,-86
2016-07-28T06:22:57.397Z,-86
2016-07-28T06:23:57.234Z,-84
2016-07-28T06:24:57.396Z,-85
2016-07-28T06:25:57.240Z,-85
2016-07-28T06:26:57.327Z,-86
2016-07-28T06:27:57.313Z,-85
2016-07-28T06:28:57.259Z,-86
2016-07-28T06:29:57.414Z,-87
2016-07-28T06:30:57.527Z,-87
2016-07-28T06:31:57.262Z,-86
2016-07-28T06:32:57.334Z,-87
2016-07-28T06:33:57.430Z,-87
2016-07-28T06:34:57.424Z,-86
2016-07-28T06:35:57.462Z,-86
2016-07-28T06:36:57.406Z,-86
2016-07-28T06:37:57.428Z,-86
2016-07-28T06:38:57.351Z,-86
2016-07-28T06:39:57.369Z,-85
2016-07-28T06:40:57.520Z,-86
2016-07-28T06:41:57.388Z,-86
2016-07-28T06:42:57.353Z,-87
2016-07-28T06:43:57.454Z,-86
2016-07-28T06:44:57.367Z,-86
2016-07-28T06:45:57.564Z,-86
2016-07-28T06:46:57.355Z,-86
2016-07-28T06:47:57.538Z,-87
2016-07-28T06:48:57.450Z,-86
2016-07-28T06:49:57.385Z,-88
2016-07-28T06:50:57.934Z,-93
2016-07-28T06:51:57.378Z,-96
2016-07-28T06:52:57.382Z,-95
2016-07-28T06:53:57.409Z,-96
2016-07-28T06:54:58.174Z,-96
2016-07-28T06:55:57.514Z,-96
2016-07-28T06:56:57.521Z,-96
2016-07-28T06:57:57.573Z,-96
2016-07-28T06:58:57.514Z,-96
2016-07-28T06:59:57.348Z,-96
2016-07-28T07:00:57.548Z,-96
2016-07-28T07:01:57.599Z,-95
2016-07-28T07:02:57.448Z,-95
2016-07-28T07:03:57.496Z,-96
2016-07-28T07:04:57.472Z,-94
2016-07-28T07:05:57.432Z,-96
2016-07-28T07:06:57.583Z,-96
2016-07-28T07:07:57.485Z,-94
2016-07-28T07:08:57.635Z,-96
2016-07-28T07:09:57.525Z,-96
2016-07-28T07:10:57.559Z,-95
2016-07-28T07:11:57.397Z,-96
2016-07-28T07:12:59.520Z,-96
2016-07-28T07:13:57.402Z,-96
2016-07-28T07:14:57.985Z,-96
2016-07-28T07:15:57.641Z,-96
2016-07-28T07:16:57.524Z,-96
2016-07-28T07:17:57.453Z,-96
2016-07-28T07:18:57.549Z,-85
2016-07-28T07:19:57.475Z,-93
2016-07-28T07:20:57.688Z,-96
2016-07-28T07:21:57.468Z,-96
2016-07-28T07:22:57.514Z,-94
2016-07-28T07:23:57.512Z,-96
2016-07-28T07:24:57.627Z,-95
2016-07-28T07:25:57.579Z,-95
2016-07-28T07:26:58.394Z,-94
2016-07-28T07:27:57.458Z,-94
2016-07-28T07:28:57.494Z,-94
2016-07-28T07:29:57.515Z,-94
2016-07-28T07:30:57.590Z,-94
2016-07-28T07:31:58.274Z,-88
2016-07-28T07:32:57.953Z,-90
2016-07-28T07:33:57.556Z,-92
2016-07-28T07:34:57.697Z,-92
2016-07-28T07:35:57.538Z,-92
2016-07-28T07:37:03.819Z,-94
2016-07-28T07:37:57.538Z,-94
2016-07-28T07:38:57.676Z,-94
2016-07-28T07:39:57.604Z,-93
2016-07-28T07:40:57.718Z,-94
2016-07-28T07:41:57.532Z,-94
2016-07-28T07:43:57.709Z,-94
2016-07-28T07:44:57.709Z,-94
2016-07-28T07:45:57.533Z,-95
2016-07-28T07:46:57.629Z,-93
2016-07-28T07:47:57.555Z,-93
2016-07-28T07:48:57.577Z,-93
2016-07-28T07:49:57.713Z,-94
2016-07-28T07:50:57.711Z,-94
2016-07-28T07:51:57.741Z,-93
2016-07-28T07:52:57.645Z,-93
2016-07-28T07:53:57.691Z,-93
2016-07-28T07:54:57.588Z,-94
2016-07-28T07:55:57.632Z,-94
2016-07-28T07:56:57.584Z,-93
2016-07-28T07:58:57.532Z,-93
2016-07-28T07:59:57.603Z,-93
2016-07-28T08:00:57.712Z,-93
2016-07-28T08:01:57.745Z,-90
2016-07-28T08:02:57.571Z,-91
2016-07-28T08:03:57.702Z,-91
2016-07-28T08:04:57.580Z,-91
2016-07-28T08:05:57.629Z,-91
2016-07-28T08:06:57.773Z,-90
2016-07-28T08:07:57.680Z,-91
2016-07-28T08:08:57.802Z,-91
2016-07-28T08:09:57.747Z,-95
2016-07-28T08:10:57.810Z,-94
2016-07-28T08:11:57.707Z,-94
2016-07-28T08:13:57.705Z,-95
2016-07-28T08:14:57.642Z,-96
2016-07-28T08:15:57.830Z,-95
2016-07-28T08:16:57.667Z,-95
2016-07-28T08:17:57.717Z,-95
2016-07-28T08:18:57.655Z,-96
2016-07-28T08:19:57.742Z,-94
2016-07-28T08:20:57.972Z,-94
2016-07-28T08:21:58.359Z,-96
2016-07-28T08:22:57.557Z,-96
2016-07-28T08:23:57.780Z,-96
2016-07-28T08:24:57.641Z,-96
2016-07-28T08:25:57.813Z,-96
2016-07-28T08:26:57.730Z,-96
2016-07-28T08:27:57.951Z,-96
2016-07-28T08:28:58.426Z,-95
2016-07-28T08:29:58.425Z,-96
2016-07-28T08:30:57.742Z,-95
2016-07-28T08:31:58.264Z,-95
2016-07-28T08:32:57.739Z,-95
2016-07-28T08:33:57.791Z,-95
2016-07-28T08:34:57.701Z,-96
2016-07-28T08:35:57.690Z,-96
2016-07-28T08:36:57.695Z,-96
2016-07-28T08:37:57.814Z,-96
2016-07-28T08:39:57.802Z,-96
2016-07-28T08:40:57.694Z,-96
2016-07-28T08:41:57.705Z,-96
2016-07-28T08:42:57.991Z,-96
2016-07-28T08:43:57.640Z,-96
2016-07-28T08:44:58.491Z,-96
2016-07-28T08:45:57.785Z,-96
2016-07-28T08:46:57.955Z,-96
2016-07-28T08:47:58.228Z,-96
2016-07-28T08:48:57.727Z,-96
2016-07-28T08:49:57.756Z,-96
2016-07-28T08:50:57.744Z,-96
2016-07-28T08:51:57.736Z,-96
2016-07-28T08:52:57.775Z,-96
2016-07-28T08:53:57.779Z,-96
2016-07-28T08:54:57.734Z,-96
2016-07-28T08:55:57.742Z,-96
2016-07-28T08:56:57.803Z,-96
2016-07-28T08:57:57.798Z,-96
2016-07-28T08:58:57.701Z,-96
2016-07-28T08:59:57.755Z,-96
2016-07-28T09:00:57.793Z,-96
2016-07-28T09:01:57.871Z,-92
2016-07-28T09:02:57.701Z,-92
2016-07-28T09:03:57.886Z,-92
2016-07-28T09:04:57.845Z,-92
2016-07-28T09:05:57.713Z,-92
2016-07-28T09:06:58.093Z,-92
2016-07-28T09:07:57.877Z,-91
2016-07-28T09:08:57.857Z,-92
2016-07-28T09:09:57.884Z,-91
2016-07-28T09:10:57.910Z,-91
2016-07-28T09:11:57.804Z,-88
2016-07-28T09:12:58.021Z,-90
2016-07-28T09:13:57.877Z,-88
2016-07-28T09:14:58.474Z,-92
2016-07-28T09:15:57.738Z,-92
2016-07-28T09:16:57.891Z,-91
2016-07-28T09:17:57.869Z,-92
2016-07-28T09:18:57.939Z,-90
2016-07-28T09:19:57.957Z,-90
2016-07-28T09:20:57.783Z,-90
2016-07-28T09:21:58.100Z,-90
2016-07-28T09:22:57.986Z,-90
2016-07-28T09:23:57.968Z,-90
2016-07-28T09:24:58.055Z,-90
2016-07-28T09:25:59.519Z,-89
2016-07-28T09:26:58.078Z,-89
2016-07-28T09:27:57.938Z,-88
2016-07-28T09:28:57.889Z,-88
2016-07-28T09:29:57.913Z,-88
2016-07-28T09:30:57.785Z,-87
2016-07-28T09:31:57.929Z,-88
2016-07-28T09:32:57.869Z,-87
2016-07-28T09:33:57.863Z,-87
2016-07-28T09:34:57.953Z,-87
2016-07-28T09:35:57.878Z,-88
2016-07-28T09:36:57.839Z,-88
2016-07-28T09:37:57.996Z,-88
2016-07-28T09:38:57.984Z,-88
2016-07-28T09:39:57.798Z,-87
2016-07-28T09:40:57.816Z,-87
2016-07-28T09:41:58.576Z,-87
2016-07-28T09:42:58.002Z,-87
2016-07-28T09:43:58.046Z,-86
2016-07-28T09:44:57.961Z,-85
2016-07-28T09:45:57.816Z,-87
2016-07-28T09:47:10.707Z,-87
2016-07-28T09:47:57.930Z,-86
2016-07-28T09:48:57.924Z,-86
2016-07-28T09:49:58.892Z,-87
2016-07-28T09:50:58.977Z,-87
2016-07-28T09:51:57.992Z,-87
2016-07-28T09:52:58.558Z,-87
2016-07-28T09:53:58.095Z,-86
2016-07-28T09:54:58.910Z,-86
2016-07-28T09:55:58.003Z,-86
2016-07-28T09:56:57.906Z,-86
2016-07-28T09:57:57.939Z,-86
2016-07-28T09:58:57.881Z,-86
2016-07-28T09:59:57.924Z,-87
2016-07-28T10:00:57.911Z,-87
2016-07-28T10:01:58.128Z,-87
2016-07-28T10:02:57.937Z,-86
2016-07-28T10:03:58.201Z,-86
2016-07-28T10:04:59.728Z,-87
2016-07-28T10:05:58.036Z,-88
2016-07-28T10:06:58.132Z,-87
2016-07-28T10:07:58.608Z,-87
2016-07-28T10:08:57.886Z,-88
2016-07-28T10:09:57.962Z,-87
2016-07-28T10:10:58.283Z,-87
2016-07-28T10:11:57.896Z,-87
2016-07-28T10:12:58.121Z,-86
2016-07-28T10:13:58.694Z,-87
2016-07-28T10:14:57.954Z,-87
2016-07-28T10:15:58.108Z,-86
2016-07-28T10:16:58.236Z,-86
2016-07-28T10:17:58.110Z,-87
2016-07-28T10:18:58.008Z,-87
2016-07-28T10:19:58.806Z,-87
2016-07-28T10:20:58.242Z,-86
2016-07-28T10:21:57.928Z,-87
2016-07-28T10:22:58.163Z,-86
2016-07-28T10:23:58.008Z,-87
2016-07-28T10:24:58.122Z,-86
2016-07-28T10:25:58.027Z,-87
2016-07-28T10:26:58.154Z,-87
2016-07-28T10:27:58.128Z,-86
2016-07-28T10:28:58.127Z,-87
2016-07-28T10:29:58.327Z,-87
2016-07-28T10:30:58.050Z,-87
2016-07-28T10:31:58.186Z,-86
2016-07-28T10:33:00.005Z,-88
2016-07-28T10:33:58.040Z,-85
2016-07-28T10:34:58.104Z,-85
2016-07-28T10:35:57.952Z,-85
2016-07-28T10:36:58.051Z,-84
2016-07-28T10:37:58.092Z,-85
2016-07-28T10:38:57.976Z,-87
2016-07-28T10:39:58.052Z,-85
2016-07-28T10:40:58.130Z,-83
2016-07-28T10:41:58.276Z,-84
2016-07-28T10:42:58.211Z,-82
2016-07-28T10:43:58.158Z,-81
2016-07-28T10:44:58.162Z,-81
2016-07-28T10:45:58.239Z,-81
2016-07-28T10:46:58.190Z,-83
2016-07-28T10:47:58.176Z,-83
2016-07-28T10:48:58.102Z,-83
2016-07-28T10:49:59.612Z,-83
2016-07-28T10:50:58.211Z,-83
2016-07-28T10:51:58.166Z,-83
2016-07-28T10:52:58.038Z,-83
2016-07-28T10:53:58.186Z,-83
2016-07-28T10:54:58.245Z,-84
2016-07-28T10:55:58.334Z,-83
2016-07-28T10:56:58.062Z,-83
2016-07-28T10:57:58.399Z,-83
2016-07-28T10:58:58.204Z,-83
2016-07-28T10:59:58.335Z,-83
2016-07-28T11:00:58.194Z,-83
2016-07-28T11:01:58.213Z,-83
2016-07-28T11:02:58.183Z,-83
2016-07-28T11:03:58.368Z,-83
2016-07-28T11:05:04.035Z,-83
2016-07-28T11:05:58.124Z,-83
2016-07-28T11:06:58.257Z,-83
2016-07-28T11:07:58.106Z,-83
2016-07-28T11:08:58.125Z,-83
2016-07-28T11:09:58.237Z,-83
2016-07-28T11:10:58.206Z,-83
2016-07-28T11:11:58.139Z,-83
2016-07-28T11:12:58.065Z,-83
2016-07-28T11:13:58.276Z,-83
2016-07-28T11:14:58.252Z,-83
2016-07-28T11:15:58.122Z,-82
2016-07-28T11:16:58.195Z,-82
2016-07-28T11:17:58.290Z,-82
2016-07-28T11:18:58.262Z,-83
2016-07-28T11:19:58.124Z,-83
2016-07-28T11:20:58.158Z,-82
2016-07-28T11:21:58.207Z,-82
2016-07-28T11:22:58.173Z,-81
2016-07-28T11:23:58.728Z,-83
2016-07-28T11:24:58.232Z,-82
2016-07-28T11:25:58.170Z,-82
2016-07-28T11:26:58.385Z,-84
2016-07-28T11:27:58.227Z,-83
2016-07-28T11:28:58.258Z,-83
2016-07-28T11:29:58.245Z,-84
2016-07-28T11:30:58.206Z,-84
2016-07-28T11:31:58.343Z,-84
2016-07-28T11:32:58.315Z,-83
2016-07-28T11:33:58.266Z,-84
2016-07-28T11:34:58.305Z,-84
2016-07-28T11:35:58.252Z,-84
2016-07-28T11:36:58.421Z,-84
2016-07-28T11:37:58.258Z,-84
2016-07-28T11:38:58.299Z,-84
2016-07-28T11:39:58.185Z,-84
2016-07-28T11:40:58.342Z,-84
2016-07-28T11:41:58.242Z,-84
2016-07-28T11:42:58.503Z,-83
2016-07-28T11:43:58.374Z,-83
2016-07-28T11:44:58.338Z,-83
2016-07-28T11:45:58.317Z,-83
2016-07-28T11:46:58.333Z,-84
2016-07-28T11:47:58.389Z,-83
2016-07-28T11:48:59.070Z,-83
2016-07-28T11:49:58.343Z,-82
2016-07-28T11:50:58.400Z,-82
2016-07-28T11:51:58.264Z,-82
2016-07-28T11:52:58.330Z,-82
2016-07-28T11:53:58.458Z,-82
2016-07-28T11:55:05.963Z,-81
2016-07-28T11:55:58.305Z,-80
2016-07-28T11:56:58.380Z,-80
2016-07-28T11:57:58.259Z,-80
2016-07-28T11:58:58.367Z,-80
2016-07-28T11:59:58.369Z,-80
2016-07-28T12:00:58.422Z,-79
2016-07-28T12:01:58.378Z,-81
2016-07-28T12:02:58.296Z,-81
2016-07-28T12:03:58.423Z,-81
2016-07-28T12:04:58.718Z,-81
2016-07-28T12:05:58.426Z,-81
2016-07-28T12:06:58.442Z,-81
2016-07-28T12:07:59.239Z,-81
2016-07-28T12:08:58.371Z,-80
2016-07-28T12:09:58.503Z,-79
2016-07-28T12:10:58.480Z,-80
2016-07-28T12:11:58.426Z,-81
2016-07-28T12:12:58.462Z,-80
2016-07-28T12:13:58.348Z,-80
2016-07-28T12:14:58.677Z,-80
2016-07-28T12:15:58.492Z,-80
2016-07-28T12:16:58.411Z,-80
2016-07-28T12:17:58.294Z,-81
2016-07-28T12:18:58.367Z,-80
2016-07-28T12:19:58.524Z,-81
2016-07-28T12:20:58.516Z,-81
2016-07-28T12:21:58.435Z,-81
2016-07-28T12:22:58.306Z,-81
2016-07-28T12:23:58.550Z,-80
2016-07-28T12:24:58.590Z,-81
2016-07-28T12:25:58.680Z,-80
2016-07-28T12:26:58.619Z,-81
2016-07-28T12:27:58.473Z,-81
2016-07-28T12:28:58.503Z,-81
2016-07-28T12:29:59.219Z,-81
2016-07-28T12:30:58.489Z,-81
2016-07-28T12:31:58.307Z,-81
2016-07-28T12:32:58.566Z,-82
2016-07-28T12:33:58.532Z,-81
2016-07-28T12:34:58.467Z,-81
2016-07-28T12:35:58.446Z,-83
2016-07-28T12:36:58.695Z,-83
2016-07-28T12:37:58.438Z,-83
2016-07-28T12:38:58.473Z,-83
2016-07-28T12:39:58.377Z,-84
2016-07-28T12:40:58.695Z,-83
2016-07-28T12:41:58.504Z,-84
2016-07-28T12:42:58.531Z,-83
2016-07-28T12:43:58.355Z,-84
2016-07-28T12:44:58.492Z,-84
2016-07-28T12:45:59.198Z,-84
2016-07-28T12:46:58.387Z,-85
2016-07-28T12:47:58.490Z,-86
2016-07-28T12:48:58.504Z,-86
2016-07-28T12:49:58.475Z,-85
2016-07-28T12:50:58.736Z,-84
2016-07-28T12:51:59.485Z,-84
2016-07-28T12:52:58.436Z,-85
2016-07-28T12:53:58.574Z,-84
2016-07-28T12:54:58.614Z,-85
2016-07-28T12:55:58.514Z,-85
2016-07-28T12:56:58.526Z,-86
2016-07-28T12:57:58.455Z,-86
2016-07-28T12:59:58.810Z,-86
2016-07-28T13:00:58.524Z,-86
2016-07-28T13:01:58.546Z,-85
2016-07-28T13:02:58.383Z,-85
2016-07-28T13:03:58.642Z,-86
2016-07-28T13:04:58.645Z,-85
2016-07-28T13:05:58.388Z,-87
2016-07-28T13:06:58.578Z,-87
2016-07-28T13:07:58.672Z,-87
2016-07-28T13:08:58.425Z,-86
2016-07-28T13:09:58.572Z,-86
2016-07-28T13:10:58.453Z,-86
2016-07-28T13:11:58.547Z,-86
2016-07-28T13:12:58.547Z,-87
2016-07-28T13:14:58.607Z,-84
2016-07-28T13:15:58.611Z,-85
2016-07-28T13:16:58.490Z,-86
2016-07-28T13:17:59.353Z,-86
2016-07-28T13:18:58.573Z,-85
2016-07-28T13:19:58.531Z,-84
2016-07-28T13:20:58.583Z,-84
2016-07-28T13:21:58.718Z,-83
2016-07-28T13:22:58.509Z,-84
2016-07-28T13:23:58.588Z,-84
2016-07-28T13:24:58.625Z,-84
2016-07-28T13:25:58.554Z,-84
2016-07-28T13:26:58.615Z,-83
2016-07-28T13:27:58.587Z,-83
2016-07-28T13:28:58.699Z,-83
2016-07-28T13:29:58.661Z,-84
2016-07-28T13:30:58.669Z,-84
2016-07-28T13:31:59.290Z,-82
2016-07-28T13:32:58.635Z,-83
2016-07-28T13:33:58.616Z,-83
2016-07-28T13:34:58.469Z,-83
2016-07-28T13:35:58.567Z,-84
2016-07-28T13:36:59.121Z,-84
2016-07-28T13:37:58.489Z,-84
2016-07-28T13:38:58.671Z,-83
2016-07-28T13:39:58.557Z,-83
2016-07-28T13:40:58.650Z,-83
2016-07-28T13:41:58.604Z,-83
2016-07-28T13:42:58.636Z,-84
2016-07-28T13:43:58.721Z,-82
2016-07-28T13:44:58.872Z,-83
2016-07-28T13:45:58.569Z,-83
2016-07-28T13:46:58.719Z,-83
2016-07-28T13:47:58.672Z,-83
2016-07-28T13:48:58.652Z,-82
2016-07-28T13:49:58.677Z,-82
2016-07-28T13:50:58.759Z,-82
2016-07-28T13:51:58.595Z,-82
2016-07-28T13:52:58.573Z,-82
2016-07-28T13:53:58.843Z,-82
2016-07-28T13:54:58.528Z,-83
2016-07-28T13:55:58.542Z,-82
2016-07-28T13:56:58.528Z,-82